createdAt,value
2023-05-14T00:02:13.228Z,2.45
2023-05-14T00:04:42.228Z,2.58
2023-05-14T00:07:11.872Z,2.78
2023-05-14T00:09:41.066Z,2.80
2023-05-14T00:12:10.199Z,3.08
2023-05-14T00:14:39.257Z,2.88
2023-05-14T00:17:09.582Z,3.65
2023-05-14T00:19:43.384Z,2.65
2023-05-14T00:22:12.906Z,2.53
2023-05-14T00:24:41.967Z,2.47
2023-05-14T00:27:11.697Z,2.88
2023-05-14T00:29:42.168Z,2.83
2023-05-14T00:32:16.418Z,2.83
2023-05-14T00:34:45.628Z,2.97
2023-05-14T00:37:15.448Z,3.25
2023-05-14T00:39:44.554Z,3.20
2023-05-14T00:42:13.698Z,2.72
2023-05-14T00:44:47.146Z,2.45
2023-05-14T00:47:21.184Z,3.50
2023-05-14T00:49:50.356Z,2.80
2023-05-14T00:52:19.658Z,2.95
2023-05-14T00:54:49.310Z,3.13
2023-05-14T00:57:20.314Z,3.50
2023-05-14T00:59:49.939Z,3.67
2023-05-14T01:02:20.352Z,3.35
2023-05-14T01:04:49.864Z,3.38
2023-05-14T01:07:31.221Z,3.40
2023-05-14T01:10:13.079Z,3.53
2023-05-14T01:12:49.137Z,3.25
2023-05-14T01:15:25.128Z,3.65
2023-05-14T01:18:00.631Z,3.38
2023-05-14T01:20:29.723Z,3.20
2023-05-14T01:23:01.040Z,3.60
2023-05-14T01:25:31.064Z,3.35
2023-05-14T01:28:05.167Z,3.70
2023-05-14T01:30:37.609Z,3.65
2023-05-14T01:33:11.260Z,3.90
2023-05-14T01:35:41.627Z,3.80
2023-05-14T01:38:14.934Z,3.75
2023-05-14T01:43:13.095Z,3.78
2023-05-14T01:45:44.157Z,3.65
2023-05-14T01:48:13.264Z,4.15
2023-05-14T01:50:42.610Z,4.05
2023-05-14T01:53:13.262Z,3.75
2023-05-14T01:55:42.625Z,3.65
2023-05-14T01:58:12.310Z,3.65
2023-05-14T02:00:41.588Z,3.40
2023-05-14T02:03:10.692Z,3.65
2023-05-14T02:05:39.993Z,4.18
2023-05-14T02:08:09.155Z,4.15
2023-05-14T02:10:39.684Z,4.20
2023-05-14T02:13:09.734Z,4.43
2023-05-14T02:15:42.487Z,4.25
2023-05-14T02:18:12.156Z,4.15
2023-05-14T02:20:41.289Z,5.30
2023-05-14T02:23:10.300Z,4.28
2023-05-14T02:25:40.538Z,3.58
2023-05-14T02:28:10.038Z,3.20
2023-05-14T02:30:41.260Z,3.47
2023-05-14T02:33:10.309Z,3.38
2023-05-14T02:35:39.262Z,3.33
2023-05-14T02:38:10.500Z,3.30
2023-05-14T02:40:40.696Z,3.38
2023-05-14T02:43:10.219Z,3.55
2023-05-14T02:45:39.238Z,3.65
2023-05-14T02:48:08.741Z,3.58
2023-05-14T02:50:39.710Z,3.55
2023-05-14T02:53:08.796Z,3.58
2023-05-14T02:55:38.048Z,3.83
2023-05-14T02:58:08.756Z,3.88
2023-05-14T03:00:37.680Z,3.60
2023-05-14T03:03:07.008Z,4.30
2023-05-14T03:05:36.569Z,4.15
2023-05-14T03:08:05.631Z,3.90
2023-05-14T03:10:34.779Z,3.85
2023-05-14T03:13:06.614Z,4.00
2023-05-14T03:15:37.227Z,3.58
2023-05-14T03:18:06.894Z,4.03
2023-05-14T03:20:37.194Z,3.45
2023-05-14T03:23:06.407Z,3.60
2023-05-14T03:25:35.565Z,3.75
2023-05-14T03:28:07.421Z,4.07
2023-05-14T03:30:38.201Z,3.53
2023-05-14T03:33:07.561Z,3.25
2023-05-14T03:35:37.178Z,3.42
2023-05-14T03:38:06.097Z,3.95
2023-05-14T03:40:36.868Z,3.72
2023-05-14T03:43:06.856Z,3.42
2023-05-14T03:45:37.538Z,3.20
2023-05-14T03:48:07.438Z,3.33
2023-05-14T03:50:37.208Z,3.22
2023-05-14T03:53:09.277Z,3.55
2023-05-14T03:55:40.866Z,3.38
2023-05-14T03:58:14.417Z,3.50
2023-05-14T04:00:45.372Z,3.88
2023-05-14T04:03:14.853Z,3.95
2023-05-14T04:05:44.579Z,4.93
2023-05-14T04:08:13.749Z,5.13
2023-05-14T04:10:46.314Z,41.00
2023-05-14T04:13:15.380Z,6.40
2023-05-14T04:15:48.434Z,21.13
2023-05-14T04:18:17.542Z,5.40
2023-05-14T04:20:46.657Z,3.85
2023-05-14T04:23:15.779Z,3.28
2023-05-14T04:25:47.827Z,3.22
2023-05-14T04:28:16.851Z,3.55
2023-05-14T04:30:47.165Z,4.00
2023-05-14T04:33:18.269Z,3.80
2023-05-14T04:35:50.552Z,3.10
2023-05-14T04:38:19.766Z,4.00
2023-05-14T04:40:48.700Z,3.95
2023-05-14T04:43:18.319Z,3.42
2023-05-14T04:45:50.187Z,3.60
2023-05-14T04:48:19.157Z,3.67
2023-05-14T04:50:48.353Z,3.35
2023-05-14T04:53:20.741Z,3.63
2023-05-14T04:55:50.045Z,3.33
2023-05-14T04:58:19.149Z,3.58
2023-05-14T05:00:49.741Z,4.20
2023-05-14T05:03:18.925Z,10.02
2023-05-14T05:05:48.251Z,8.63
2023-05-14T05:08:17.380Z,3.40
2023-05-14T05:10:46.368Z,7.45
2023-05-14T05:13:19.157Z,3.58
2023-05-14T05:15:49.624Z,4.03
2023-05-14T05:18:19.185Z,3.72
2023-05-14T05:20:49.295Z,2.67
2023-05-14T05:23:18.378Z,2.80
2023-05-14T05:25:47.446Z,3.78
2023-05-14T05:28:16.605Z,2.50
2023-05-14T05:30:46.505Z,3.03
2023-05-14T05:33:17.188Z,2.80
2023-05-14T05:35:46.396Z,2.58
2023-05-14T05:38:18.708Z,2.58
2023-05-14T05:40:48.108Z,3.33
2023-05-14T05:43:17.663Z,2.83
2023-05-14T05:45:51.802Z,2.20
2023-05-14T05:48:22.177Z,2.47
2023-05-14T05:50:51.580Z,2.40
2023-05-14T05:53:20.609Z,2.90
2023-05-14T05:55:51.797Z,2.65
2023-05-14T05:58:21.080Z,3.00
2023-05-14T06:00:50.681Z,2.85
2023-05-14T06:03:19.715Z,3.03
2023-05-14T06:05:50.838Z,3.17
2023-05-14T06:08:20.217Z,3.08
2023-05-14T06:10:49.310Z,3.17
2023-05-14T06:13:18.285Z,3.10
2023-05-14T06:15:47.595Z,2.88
2023-05-14T06:18:16.900Z,3.08
2023-05-14T06:20:46.518Z,3.40
2023-05-14T06:23:17.240Z,3.30
2023-05-14T06:25:46.174Z,3.63
2023-05-14T06:28:15.144Z,3.47
2023-05-14T06:30:46.901Z,3.38
2023-05-14T06:33:20.547Z,3.53
2023-05-14T06:35:49.603Z,3.70
2023-05-14T06:38:22.799Z,3.90
2023-05-14T06:43:27.210Z,2.93
2023-05-14T06:45:57.680Z,3.45
2023-05-14T06:48:29.613Z,3.70
2023-05-14T06:51:06.538Z,3.23
2023-05-14T06:53:39.798Z,3.53
2023-05-14T06:56:15.380Z,3.50
2023-05-14T06:58:44.767Z,3.38
2023-05-14T07:01:13.780Z,3.30
2023-05-14T07:03:47.284Z,3.90
2023-05-14T07:06:16.488Z,3.95
2023-05-14T07:08:47.092Z,3.25
2023-05-14T07:11:28.415Z,3.60
2023-05-14T07:14:11.311Z,5.55
2023-05-14T07:16:40.354Z,3.50
2023-05-14T07:19:11.323Z,3.30
2023-05-14T07:21:43.035Z,3.28
2023-05-14T07:24:13.459Z,4.70
2023-05-14T07:26:42.462Z,6.55
2023-05-14T07:29:11.388Z,3.60
2023-05-14T07:31:42.759Z,3.88
2023-05-14T07:34:12.899Z,4.32
2023-05-14T07:36:44.765Z,3.57
2023-05-14T07:39:15.391Z,3.10
2023-05-14T07:41:45.719Z,3.25
2023-05-14T07:44:14.743Z,3.95
2023-05-14T07:46:46.786Z,3.17
2023-05-14T07:49:15.948Z,5.50
2023-05-14T07:51:45.308Z,3.17
2023-05-14T07:54:15.799Z,3.67
2023-05-14T07:56:53.231Z,4.57
2023-05-14T07:59:29.126Z,3.60
2023-05-14T08:01:58.442Z,3.75
2023-05-14T08:04:27.788Z,3.20
2023-05-14T08:06:58.235Z,5.15
2023-05-14T08:09:29.338Z,5.97
2023-05-14T08:12:05.153Z,3.20
2023-05-14T08:14:37.297Z,2.90
2023-05-14T08:17:07.151Z,3.90
2023-05-14T08:19:36.724Z,2.85
2023-05-14T08:22:08.524Z,25.15
2023-05-14T08:24:43.211Z,2.90
2023-05-14T08:27:12.476Z,3.25
2023-05-14T08:29:42.872Z,2.95
2023-05-14T08:32:22.906Z,5.15
2023-05-14T08:34:54.251Z,3.17
2023-05-14T08:37:24.916Z,2.38
2023-05-14T08:39:58.052Z,2.58
2023-05-14T08:45:03.177Z,3.05
2023-05-14T08:47:33.585Z,2.67
2023-05-14T08:50:07.509Z,2.90
2023-05-14T08:55:07.975Z,2.78
2023-05-14T08:57:37.505Z,2.40
2023-05-14T09:00:11.499Z,2.70
2023-05-14T09:02:47.796Z,2.35
2023-05-14T09:05:22.880Z,2.35
2023-05-14T09:07:54.777Z,2.53
2023-05-14T09:10:26.310Z,2.42
2023-05-14T09:13:02.030Z,2.67
2023-05-14T09:15:33.029Z,2.22
2023-05-14T09:18:02.132Z,2.67
2023-05-14T09:20:32.793Z,2.42
2023-05-14T09:23:02.094Z,2.28
2023-05-14T09:25:36.498Z,3.03
2023-05-14T09:28:10.185Z,2.35
2023-05-14T09:30:41.320Z,2.40
2023-05-14T09:33:11.034Z,2.33
2023-05-14T09:35:54.842Z,2.63
2023-05-14T09:38:33.848Z,2.60
2023-05-14T09:41:11.709Z,2.10
2023-05-14T09:43:49.161Z,2.13
2023-05-14T09:46:19.072Z,2.47
2023-05-14T09:48:48.269Z,2.13
2023-05-14T09:51:18.456Z,2.40
2023-05-14T09:55:03.580Z,2.80
2023-05-14T09:57:35.512Z,2.78
2023-05-14T10:00:05.187Z,2.10
2023-05-14T10:02:38.938Z,2.50
2023-05-14T10:05:09.858Z,2.08
2023-05-14T10:07:44.071Z,3.00
2023-05-14T10:10:45.592Z,2.45
2023-05-14T10:13:31.071Z,2.67
2023-05-14T10:16:10.180Z,2.15
2023-05-14T10:18:45.999Z,2.92
2023-05-14T10:21:19.725Z,2.40
2023-05-14T10:23:52.876Z,4.70
2023-05-14T10:26:23.974Z,2.30
2023-05-14T10:28:56.074Z,2.50
2023-05-14T10:31:46.309Z,2.40
2023-05-14T10:34:39.063Z,8.20
2023-05-14T10:37:10.736Z,2.90
2023-05-14T10:39:47.730Z,2.63
2023-05-14T10:42:21.903Z,2.25
2023-05-14T10:45:00.437Z,2.30
2023-05-14T10:47:37.263Z,2.58
2023-05-14T10:50:08.727Z,3.35
2023-05-14T10:52:40.105Z,2.50
2023-05-14T10:55:12.560Z,2.40
2023-05-14T10:57:44.146Z,4.72
2023-05-14T11:00:16.481Z,3.17
2023-05-14T11:02:57.174Z,3.50
2023-05-14T11:05:27.758Z,3.22
2023-05-14T11:07:59.442Z,2.30
2023-05-14T11:10:30.197Z,2.50
2023-05-14T11:12:59.481Z,3.20
2023-05-14T11:15:29.805Z,3.67
2023-05-14T11:17:58.866Z,3.60
2023-05-14T11:20:27.936Z,5.28
2023-05-14T11:22:57.105Z,4.60
2023-05-14T11:25:26.821Z,3.08
2023-05-14T11:27:58.888Z,1.95
2023-05-14T11:30:29.694Z,2.28
2023-05-14T11:33:01.236Z,2.38
2023-05-14T11:35:31.754Z,2.22
2023-05-14T11:38:00.948Z,2.65
2023-05-14T11:40:30.531Z,2.40
2023-05-14T11:42:59.702Z,2.90
2023-05-14T11:45:30.440Z,2.40
2023-05-14T11:47:59.390Z,2.53
2023-05-14T11:50:29.491Z,2.50
2023-05-14T11:52:58.794Z,1.92
2023-05-14T11:55:28.058Z,2.58
2023-05-14T11:57:57.655Z,2.42
2023-05-14T12:00:31.523Z,2.70
2023-05-14T12:03:01.226Z,2.70
2023-05-14T12:05:30.532Z,2.08
2023-05-14T12:07:59.818Z,2.45
2023-05-14T12:10:28.715Z,2.35
2023-05-14T12:12:57.851Z,2.50
2023-05-14T12:15:27.913Z,3.40
2023-05-14T12:17:58.528Z,2.60
2023-05-14T12:20:28.674Z,2.70
2023-05-14T12:22:57.730Z,2.78
2023-05-14T12:25:27.037Z,2.75
2023-05-14T12:27:55.983Z,2.78
2023-05-14T12:30:24.890Z,4.47
2023-05-14T12:32:56.361Z,2.85
2023-05-14T12:35:28.863Z,2.60
2023-05-14T12:37:58.011Z,2.75
2023-05-14T12:40:28.034Z,2.50
2023-05-14T12:43:02.795Z,2.50
2023-05-14T12:45:32.636Z,2.15
2023-05-14T12:48:11.035Z,2.17
2023-05-14T12:50:42.019Z,2.30
2023-05-14T12:53:16.331Z,2.53
2023-05-14T12:55:45.959Z,2.22
2023-05-14T12:58:18.137Z,2.47
2023-05-14T13:00:47.053Z,2.60
2023-05-14T13:03:16.530Z,2.67
2023-05-14T13:05:46.938Z,4.85
2023-05-14T13:08:18.018Z,2.50
2023-05-14T13:10:47.599Z,2.65
2023-05-14T13:13:32.992Z,2.67
2023-05-14T13:16:10.984Z,2.70
2023-05-14T13:18:41.691Z,2.78
2023-05-14T13:21:12.854Z,2.55
2023-05-14T13:23:42.521Z,4.10
2023-05-14T13:26:12.012Z,3.22
2023-05-14T13:28:45.159Z,2.10
2023-05-14T13:31:15.820Z,2.15
2023-05-14T13:33:46.233Z,1.98
2023-05-14T13:36:17.028Z,2.40
2023-05-14T13:38:47.023Z,2.50
2023-05-14T13:41:16.143Z,2.65
2023-05-14T13:43:45.474Z,2.17
2023-05-14T13:46:14.618Z,2.65
2023-05-14T13:48:44.008Z,2.60
2023-05-14T13:51:13.676Z,2.60
2023-05-14T13:53:45.520Z,3.33
2023-05-14T13:56:14.706Z,2.50
2023-05-14T13:58:43.954Z,2.80
2023-05-14T14:01:13.907Z,2.22
2023-05-14T14:03:42.951Z,3.03
2023-05-14T14:06:14.121Z,3.40
2023-05-14T14:08:44.803Z,3.30
2023-05-14T14:11:14.184Z,2.72
2023-05-14T14:13:45.145Z,2.92
2023-05-14T14:16:15.983Z,2.65
2023-05-14T14:18:48.553Z,2.33
2023-05-14T14:21:18.549Z,2.70
2023-05-14T14:23:55.256Z,2.50
2023-05-14T14:26:28.132Z,2.22
2023-05-14T14:29:00.969Z,2.58
2023-05-14T14:31:30.847Z,2.00
2023-05-14T14:34:00.635Z,2.58
2023-05-14T14:36:31.962Z,2.45
2023-05-14T14:39:02.790Z,2.35
2023-05-14T14:41:32.732Z,2.25
2023-05-14T14:44:03.481Z,2.90
2023-05-14T14:46:35.720Z,3.15
2023-05-14T14:49:07.774Z,2.60
2023-05-14T14:51:37.212Z,3.40
2023-05-14T14:54:09.982Z,2.53
2023-05-14T14:56:41.315Z,3.10
2023-05-14T14:59:15.074Z,2.30
2023-05-14T15:01:44.914Z,1.95
2023-05-14T15:04:15.460Z,2.40
2023-05-14T15:06:44.552Z,2.20
2023-05-14T15:09:15.112Z,2.35
2023-05-14T15:11:44.409Z,2.10
2023-05-14T15:14:13.663Z,2.20
2023-05-14T15:16:43.327Z,1.90
2023-05-14T15:19:15.512Z,2.05
2023-05-14T15:21:46.888Z,2.20
2023-05-14T15:24:17.916Z,2.10
2023-05-14T15:26:47.387Z,2.40
2023-05-14T15:29:27.066Z,2.30
2023-05-14T15:32:03.095Z,2.58
2023-05-14T15:34:35.873Z,1.90
2023-05-14T15:37:05.156Z,1.83
2023-05-14T15:39:35.640Z,2.08
2023-05-14T15:42:05.684Z,2.42
2023-05-14T15:44:39.019Z,2.10
2023-05-14T15:47:08.891Z,2.65
2023-05-14T15:49:38.020Z,2.35
2023-05-14T15:52:09.748Z,2.47
2023-05-14T15:54:42.447Z,2.45
2023-05-14T15:57:12.242Z,2.75
2023-05-14T15:59:41.122Z,2.72
2023-05-14T16:02:14.150Z,2.10
2023-05-14T16:04:46.936Z,2.25
2023-05-14T16:07:16.494Z,3.17
2023-05-14T16:09:46.988Z,2.55
2023-05-14T16:12:17.446Z,2.55
2023-05-14T16:14:51.490Z,4.63
2023-05-14T16:17:33.796Z,2.40
2023-05-14T16:20:15.289Z,2.20
2023-05-14T16:22:47.893Z,2.17
2023-05-14T16:28:30.554Z,3.20
2023-05-14T16:31:01.411Z,3.85
2023-05-14T16:33:32.225Z,2.97
2023-05-14T16:36:01.248Z,3.55
2023-05-14T16:38:30.578Z,5.03
2023-05-14T16:40:59.725Z,3.97
2023-05-14T16:43:30.566Z,3.95
2023-05-14T16:45:59.976Z,3.03
2023-05-14T16:48:29.475Z,3.15
2023-05-14T16:50:59.541Z,3.25
2023-05-14T16:53:28.770Z,3.30
2023-05-14T16:55:57.742Z,3.63
2023-05-14T16:58:27.000Z,3.10
2023-05-14T17:00:57.674Z,4.07
2023-05-14T17:03:26.900Z,4.30
2023-05-14T17:05:55.937Z,4.60
2023-05-14T17:08:26.422Z,3.38
2023-05-14T17:10:55.403Z,4.55
2023-05-14T17:13:24.592Z,3.63
2023-05-14T17:15:53.850Z,34.38
2023-05-14T17:18:26.269Z,7.40
2023-05-14T17:20:55.748Z,14.13
2023-05-14T17:23:26.719Z,3.85
2023-05-14T17:25:59.214Z,3.33
2023-05-14T17:28:31.315Z,3.58
2023-05-14T17:31:14.535Z,3.20
2023-05-14T17:33:45.850Z,3.80
2023-05-14T17:36:15.455Z,4.45
2023-05-14T17:38:44.504Z,4.00
2023-05-14T17:41:13.774Z,4.30
2023-05-14T17:43:43.002Z,4.35
2023-05-14T17:46:14.453Z,4.70
2023-05-14T17:48:47.083Z,4.45
2023-05-14T17:51:24.147Z,3.85
2023-05-14T17:53:57.367Z,3.95
2023-05-14T17:56:32.615Z,4.20
2023-05-14T17:59:04.735Z,5.07
2023-05-14T18:01:34.165Z,5.35
2023-05-14T18:04:26.271Z,4.70
2023-05-14T18:06:55.291Z,3.95
2023-05-14T18:09:29.172Z,4.38
2023-05-14T18:11:58.517Z,4.45
2023-05-14T18:14:30.027Z,5.55
2023-05-14T18:17:01.616Z,4.80
2023-05-14T18:19:32.516Z,20.58
2023-05-14T18:22:02.272Z,7.53
2023-05-14T18:24:34.259Z,9.75
2023-05-14T18:27:05.116Z,12.73
2023-05-14T18:29:41.594Z,15.80
2023-05-14T18:32:10.748Z,13.43
2023-05-14T18:34:54.248Z,7.65
2023-05-14T18:37:28.789Z,11.80
2023-05-14T18:39:57.791Z,13.05
2023-05-14T18:42:27.596Z,12.13
2023-05-14T18:44:56.757Z,13.48
2023-05-14T18:47:26.058Z,12.77
2023-05-14T18:49:59.680Z,13.23
2023-05-14T18:52:41.071Z,12.85
2023-05-14T18:55:11.329Z,12.20
2023-05-14T18:57:46.829Z,10.63
2023-05-14T19:00:17.391Z,11.85
2023-05-14T19:02:46.956Z,11.73
2023-05-14T19:05:17.532Z,11.57
2023-05-14T19:07:49.758Z,11.13
2023-05-14T19:10:19.603Z,8.82
2023-05-14T19:12:52.017Z,7.53
2023-05-14T19:15:27.999Z,7.40
2023-05-14T19:17:58.962Z,7.65
2023-05-14T19:20:29.436Z,9.57
2023-05-14T19:22:58.776Z,8.73
2023-05-14T19:25:27.903Z,10.40
2023-05-14T19:28:02.634Z,9.55
2023-05-14T19:30:34.662Z,10.00
2023-05-14T19:33:05.190Z,9.15
2023-05-14T19:35:35.839Z,8.65
2023-05-14T19:38:05.012Z,9.15
2023-05-14T19:40:33.905Z,8.77
2023-05-14T19:43:03.198Z,10.43
2023-05-14T19:45:32.410Z,10.38
2023-05-14T19:48:01.769Z,11.95
2023-05-14T19:50:31.055Z,14.50
2023-05-14T19:53:01.397Z,13.77
2023-05-14T19:55:32.353Z,11.90
2023-05-14T19:58:08.965Z,11.13
2023-05-14T20:00:54.120Z,11.13
2023-05-14T20:03:30.076Z,10.45
2023-05-14T20:05:59.523Z,10.18
2023-05-14T20:08:36.225Z,9.38
2023-05-14T20:11:05.454Z,10.32
2023-05-14T20:13:50.658Z,11.80
2023-05-14T20:16:20.424Z,10.80
2023-05-14T20:18:49.707Z,11.13
2023-05-14T20:21:19.016Z,11.77
2023-05-14T20:23:49.336Z,12.88
2023-05-14T20:26:18.738Z,10.90
2023-05-14T20:28:47.735Z,12.43
2023-05-14T20:31:19.286Z,12.65
2023-05-14T20:33:48.374Z,11.27
2023-05-14T20:36:17.436Z,11.18
2023-05-14T20:38:47.488Z,10.48
2023-05-14T20:41:18.565Z,10.60
2023-05-14T20:43:47.538Z,25.23
2023-05-14T20:46:17.275Z,15.82
2023-05-14T20:48:48.295Z,10.77
2023-05-14T20:51:17.329Z,10.48
2023-05-14T20:53:46.847Z,9.93
2023-05-14T20:56:17.998Z,10.30
2023-05-14T20:58:47.454Z,12.10
2023-05-14T21:01:16.723Z,10.40
2023-05-14T21:03:46.370Z,10.57
2023-05-14T21:06:15.702Z,10.43
2023-05-14T21:08:45.137Z,10.85
2023-05-14T21:11:15.255Z,11.20
2023-05-14T21:13:45.829Z,10.60
2023-05-14T21:16:14.942Z,10.63
2023-05-14T21:18:44.406Z,12.45
2023-05-14T21:21:13.658Z,11.32
2023-05-14T21:23:42.734Z,12.52
2023-05-14T21:26:11.861Z,12.18
2023-05-14T21:28:40.865Z,12.05
2023-05-14T21:31:11.533Z,11.57
2023-05-14T21:33:41.641Z,11.52
2023-05-14T21:36:11.100Z,11.93
2023-05-14T21:38:40.105Z,11.57
2023-05-14T21:41:13.141Z,12.02
2023-05-14T21:43:42.080Z,11.02
2023-05-14T21:46:12.679Z,11.77
2023-05-14T21:48:41.597Z,12.77
2023-05-14T21:51:11.560Z,12.80
2023-05-14T21:53:41.455Z,11.90
2023-05-14T21:56:12.915Z,12.10
2023-05-14T21:58:42.404Z,12.20
2023-05-14T22:01:12.878Z,11.82
2023-05-14T22:03:41.977Z,12.82
2023-05-14T22:06:11.025Z,12.15
2023-05-14T22:08:40.147Z,12.48
2023-05-14T22:11:11.244Z,13.75
2023-05-14T22:13:41.095Z,12.63
2023-05-14T22:16:13.257Z,12.88
2023-05-14T22:18:44.254Z,14.10
2023-05-14T22:21:13.252Z,12.77
2023-05-14T22:23:42.501Z,13.32
2023-05-14T22:26:11.687Z,12.77
2023-05-14T22:28:43.151Z,13.13
2023-05-14T22:31:12.196Z,12.20
2023-05-14T22:33:41.445Z,11.70
2023-05-14T22:36:12.159Z,11.23
2023-05-14T22:38:41.636Z,12.93
2023-05-14T22:41:11.278Z,12.70
2023-05-14T22:43:42.315Z,11.95
2023-05-14T22:46:11.756Z,12.75
2023-05-14T22:48:40.705Z,12.50
2023-05-14T22:51:11.042Z,12.52
2023-05-14T22:53:40.037Z,13.27
2023-05-14T22:56:09.335Z,12.55
2023-05-14T22:58:38.332Z,11.68
2023-05-14T23:01:07.507Z,11.77
2023-05-14T23:03:36.397Z,11.55
2023-05-14T23:06:05.655Z,12.13
2023-05-14T23:08:36.008Z,12.77
2023-05-14T23:11:07.667Z,12.90
2023-05-14T23:13:36.568Z,12.27
2023-05-14T23:16:06.454Z,12.20
2023-05-14T23:18:35.552Z,11.85
2023-05-14T23:21:04.784Z,12.27
2023-05-14T23:23:35.190Z,11.88
2023-05-14T23:26:07.495Z,11.90
2023-05-14T23:28:36.674Z,11.25
2023-05-14T23:31:06.014Z,11.57
2023-05-14T23:33:37.021Z,11.63
2023-05-14T23:36:06.718Z,11.90
2023-05-14T23:38:37.471Z,11.50
2023-05-14T23:41:08.385Z,13.43
2023-05-14T23:43:41.391Z,13.40
2023-05-14T23:46:10.691Z,12.18
2023-05-14T23:48:39.912Z,12.00
2023-05-14T23:51:09.276Z,11.95
2023-05-14T23:53:39.708Z,12.13
2023-05-14T23:56:09.739Z,10.77
2023-05-14T23:58:38.890Z,11.07
